sensor_id;sensor_type;location;lat;lon;timestamp;pressure;altitude;pressure_sealevel;temperature;humidity
29215;BME280;16252;49.816;7.964;2022-09-12T00:02:18;100097.06;;;18.26;56.54
29215;BME280;16252;49.816;7.964;2022-09-12T00:04:43;100064.50;;;18.10;56.76
29215;BME280;16252;49.816;7.964;2022-09-12T00:07:08;100113.31;;;18.34;56.76
29215;BME280;16252;49.816;7.964;2022-09-12T00:09:34;100061.28;;;18.06;56.58
29215;BME280;16252;49.816;7.964;2022-09-12T00:11:59;100114.69;;;18.38;56.64
29215;BME280;16252;49.816;7.964;2022-09-12T00:14:24;100166.44;;;18.70;56.66
29215;BME280;16252;49.816;7.964;2022-09-12T00:16:50;100114.50;;;18.32;56.60
29215;BME280;16252;49.816;7.964;2022-09-12T00:19:15;100104.47;;;18.24;56.63
29215;BME280;16252;49.816;7.964;2022-09-12T00:21:41;100147.56;;;18.44;56.60
29215;BME280;16252;49.816;7.964;2022-09-12T00:24:07;100068.34;;;17.99;56.48
29215;BME280;16252;49.816;7.964;2022-09-12T00:26:33;100163.28;;;18.48;56.61
29215;BME280;16252;49.816;7.964;2022-09-12T00:28:59;100088.97;;;18.00;56.85
29215;BME280;16252;49.816;7.964;2022-09-12T00:31:25;100039.59;;;17.72;56.70
29215;BME280;16252;49.816;7.964;2022-09-12T00:33:52;100149.38;;;18.35;56.74
29215;BME280;16252;49.816;7.964;2022-09-12T00:36:21;100157.69;;;18.33;56.66
29215;BME280;16252;49.816;7.964;2022-09-12T00:38:47;100156.44;;;18.28;56.72
29215;BME280;16252;49.816;7.964;2022-09-12T00:41:19;100070.59;;;17.77;56.96
29215;BME280;16252;49.816;7.964;2022-09-12T00:43:48;100165.97;;;18.32;57.19
29215;BME280;16252;49.816;7.964;2022-09-12T00:46:15;100121.66;;;17.98;57.16
29215;BME280;16252;49.816;7.964;2022-09-12T00:48:51;100099.97;;;17.90;57.17
29215;BME280;16252;49.816;7.964;2022-09-12T00:51:18;100144.53;;;18.12;57.32
29215;BME280;16252;49.816;7.964;2022-09-12T00:53:45;100101.13;;;17.88;57.15
29215;BME280;16252;49.816;7.964;2022-09-12T00:56:14;100137.81;;;18.16;57.41
29215;BME280;16252;49.816;7.964;2022-09-12T00:59:04;100164.75;;;18.26;57.32
29215;BME280;16252;49.816;7.964;2022-09-12T01:01:32;100096.66;;;17.79;57.11
29215;BME280;16252;49.816;7.964;2022-09-12T01:03:58;100052.69;;;17.50;57.33
29215;BME280;16252;49.816;7.964;2022-09-12T01:06:27;100047.25;;;17.42;57.45
29215;BME280;16252;49.816;7.964;2022-09-12T01:08:53;100155.56;;;18.11;57.80
29215;BME280;16252;49.816;7.964;2022-09-12T01:11:20;100055.56;;;17.49;57.67
29215;BME280;16252;49.816;7.964;2022-09-12T01:13:46;100113.63;;;17.81;57.62
29215;BME280;16252;49.816;7.964;2022-09-12T01:16:12;100050.09;;;17.41;57.56
29215;BME280;16252;49.816;7.964;2022-09-12T01:18:54;100145.41;;;18.13;57.40
29215;BME280;16252;49.816;7.964;2022-09-12T01:27:08;100145.72;;;18.10;56.80
29215;BME280;16252;49.816;7.964;2022-09-12T01:30:26;100144.84;;;18.01;56.57
29215;BME280;16252;49.816;7.964;2022-09-12T01:33:06;100141.06;;;17.94;56.51
29215;BME280;16252;49.816;7.964;2022-09-12T01:38:39;100029.84;;;17.19;57.09
29215;BME280;16252;49.816;7.964;2022-09-12T01:50:02;100089.03;;;17.48;56.60
29215;BME280;16252;49.816;7.964;2022-09-12T01:55:51;100087.97;;;17.41;56.97
29215;BME280;16252;49.816;7.964;2022-09-12T01:58:21;100130.19;;;17.60;57.17
29215;BME280;16252;49.816;7.964;2022-09-12T02:00:54;100124.75;;;17.60;56.95
29215;BME280;16252;49.816;7.964;2022-09-12T02:03:33;100014.03;;;16.80;56.92
29215;BME280;16252;49.816;7.964;2022-09-12T02:06:07;100083.00;;;17.28;57.11
29215;BME280;16252;49.816;7.964;2022-09-12T02:08:43;99995.50;;;16.67;57.06
29215;BME280;16252;49.816;7.964;2022-09-12T02:11:11;99993.72;;;16.58;57.47
29215;BME280;16252;49.816;7.964;2022-09-12T02:13:45;100023.69;;;16.82;57.58
29215;BME280;16252;49.816;7.964;2022-09-12T02:16:18;100017.19;;;16.75;57.52
29215;BME280;16252;49.816;7.964;2022-09-12T02:18:51;100063.03;;;17.03;57.80
29215;BME280;16252;49.816;7.964;2022-09-12T02:21:19;100085.41;;;17.13;57.53
29215;BME280;16252;49.816;7.964;2022-09-12T02:23:47;100111.25;;;17.33;57.71
29215;BME280;16252;49.816;7.964;2022-09-12T02:26:21;100007.28;;;16.66;57.32
29215;BME280;16252;49.816;7.964;2022-09-12T02:28:47;100001.00;;;16.57;57.51
29215;BME280;16252;49.816;7.964;2022-09-12T02:31:21;100044.19;;;16.93;57.50
29215;BME280;16252;49.816;7.964;2022-09-12T02:34:06;100104.16;;;17.32;57.38
29215;BME280;16252;49.816;7.964;2022-09-12T02:36:41;99937.44;;;16.27;57.35
29215;BME280;16252;49.816;7.964;2022-09-12T02:39:11;100042.09;;;16.79;57.42
29215;BME280;16252;49.816;7.964;2022-09-12T02:41:36;100099.94;;;17.12;57.34
29215;BME280;16252;49.816;7.964;2022-09-12T02:44:03;100059.28;;;16.78;57.70
29215;BME280;16252;49.816;7.964;2022-09-12T02:46:35;100079.00;;;16.96;57.89
29215;BME280;16252;49.816;7.964;2022-09-12T02:49:03;100018.34;;;16.55;57.93
29215;BME280;16252;49.816;7.964;2022-09-12T02:51:29;100074.56;;;16.87;58.02
29215;BME280;16252;49.816;7.964;2022-09-12T02:53:54;100027.84;;;16.59;57.98
29215;BME280;16252;49.816;7.964;2022-09-12T02:56:25;99997.00;;;16.43;57.98
29215;BME280;16252;49.816;7.964;2022-09-12T02:58:51;100070.94;;;16.78;57.88
29215;BME280;16252;49.816;7.964;2022-09-12T03:09:46;100089.81;;;16.96;57.64
29215;BME280;16252;49.816;7.964;2022-09-12T03:12:40;100039.03;;;16.64;57.37
29215;BME280;16252;49.816;7.964;2022-09-12T03:15:25;100091.88;;;16.94;57.84
29215;BME280;16252;49.816;7.964;2022-09-12T03:26:43;99988.53;;;16.20;57.73
29215;BME280;16252;49.816;7.964;2022-09-12T03:29:10;100033.53;;;16.38;57.66
29215;BME280;16252;49.816;7.964;2022-09-12T03:31:47;100046.00;;;16.49;57.83
29215;BME280;16252;49.816;7.964;2022-09-12T03:34:13;99994.13;;;16.09;57.62
29215;BME280;16252;49.816;7.964;2022-09-12T03:36:38;100032.63;;;16.29;57.90
29215;BME280;16252;49.816;7.964;2022-09-12T03:39:05;100024.22;;;16.14;57.74
29215;BME280;16252;49.816;7.964;2022-09-12T03:41:30;99938.56;;;15.71;57.83
29215;BME280;16252;49.816;7.964;2022-09-12T03:43:55;99920.47;;;15.53;57.81
29215;BME280;16252;49.816;7.964;2022-09-12T03:46:21;100043.19;;;16.22;57.71
29215;BME280;16252;49.816;7.964;2022-09-12T03:48:46;100018.56;;;16.08;57.71
29215;BME280;16252;49.816;7.964;2022-09-12T03:51:11;100062.00;;;16.32;58.13
29215;BME280;16252;49.816;7.964;2022-09-12T03:53:37;100009.00;;;15.95;58.11
29215;BME280;16252;49.816;7.964;2022-09-12T03:56:07;99981.22;;;15.85;58.20
29215;BME280;16252;49.816;7.964;2022-09-12T03:58:32;100001.09;;;15.84;58.28
29215;BME280;16252;49.816;7.964;2022-09-12T04:00:59;100039.31;;;16.07;58.16
29215;BME280;16252;49.816;7.964;2022-09-12T04:03:25;100054.84;;;16.23;58.23
29215;BME280;16252;49.816;7.964;2022-09-12T04:05:50;100086.56;;;16.39;58.50
29215;BME280;16252;49.816;7.964;2022-09-12T04:08:15;100038.59;;;16.05;58.26
29215;BME280;16252;49.816;7.964;2022-09-12T04:10:41;99918.59;;;15.36;58.21
29215;BME280;16252;49.816;7.964;2022-09-12T04:13:06;100065.41;;;16.16;58.05
29215;BME280;16252;49.816;7.964;2022-09-12T04:15:32;100101.22;;;16.36;58.16
29215;BME280;16252;49.816;7.964;2022-09-12T04:17:57;99984.72;;;15.68;58.16
29215;BME280;16252;49.816;7.964;2022-09-12T04:20:22;99906.59;;;15.21;58.33
29215;BME280;16252;49.816;7.964;2022-09-12T04:22:48;100079.69;;;16.27;58.01
29215;BME280;16252;49.816;7.964;2022-09-12T04:25:14;100006.28;;;15.77;57.80
29215;BME280;16252;49.816;7.964;2022-09-12T04:27:39;100029.31;;;15.90;57.91
29215;BME280;16252;49.816;7.964;2022-09-12T04:30:05;100046.22;;;15.92;58.16
29215;BME280;16252;49.816;7.964;2022-09-12T04:32:30;100040.59;;;15.85;58.09
29215;BME280;16252;49.816;7.964;2022-09-12T04:34:56;100103.59;;;16.21;57.69
29215;BME280;16252;49.816;7.964;2022-09-12T04:37:22;99989.06;;;15.41;58.05
29215;BME280;16252;49.816;7.964;2022-09-12T04:39:48;100107.03;;;16.14;57.82
29215;BME280;16252;49.816;7.964;2022-09-12T04:42:15;100046.03;;;15.66;57.79
29215;BME280;16252;49.816;7.964;2022-09-12T04:44:40;100011.34;;;15.43;57.82
29215;BME280;16252;49.816;7.964;2022-09-12T04:47:05;100056.13;;;15.64;58.05
29215;BME280;16252;49.816;7.964;2022-09-12T04:49:32;99986.03;;;15.16;57.93
29215;BME280;16252;49.816;7.964;2022-09-12T04:51:57;100041.69;;;15.55;58.25
29215;BME280;16252;49.816;7.964;2022-09-12T04:54:23;100003.88;;;15.37;58.26
29215;BME280;16252;49.816;7.964;2022-09-12T04:56:49;100102.47;;;15.87;58.10
29215;BME280;16252;49.816;7.964;2022-09-12T04:59:16;99905.66;;;14.74;57.95
29215;BME280;16252;49.816;7.964;2022-09-12T05:01:42;99996.38;;;15.21;58.06
29215;BME280;16252;49.816;7.964;2022-09-12T05:04:11;99998.06;;;15.32;58.25
29215;BME280;16252;49.816;7.964;2022-09-12T05:06:38;99952.06;;;14.96;58.46
29215;BME280;16252;49.816;7.964;2022-09-12T05:09:06;100091.69;;;15.87;58.64
29215;BME280;16252;49.816;7.964;2022-09-12T05:11:37;100054.56;;;15.71;58.25
29215;BME280;16252;49.816;7.964;2022-09-12T05:14:03;99995.94;;;15.26;58.17
29215;BME280;16252;49.816;7.964;2022-09-12T05:16:29;99984.34;;;15.15;58.14
29215;BME280;16252;49.816;7.964;2022-09-12T05:18:56;99996.81;;;15.16;58.37
29215;BME280;16252;49.816;7.964;2022-09-12T05:21:23;100067.78;;;15.54;57.87
29215;BME280;16252;49.816;7.964;2022-09-12T05:23:53;99992.97;;;15.19;58.32
29215;BME280;16252;49.816;7.964;2022-09-12T05:26:19;99979.59;;;14.90;58.31
29215;BME280;16252;49.816;7.964;2022-09-12T05:28:46;100024.63;;;15.27;58.63
29215;BME280;16252;49.816;7.964;2022-09-12T05:31:15;100009.63;;;15.14;58.51
29215;BME280;16252;49.816;7.964;2022-09-12T05:33:43;100109.94;;;15.75;59.01
29215;BME280;16252;49.816;7.964;2022-09-12T05:36:19;100099.69;;;15.78;59.01
29215;BME280;16252;49.816;7.964;2022-09-12T05:38:45;100067.09;;;15.52;58.98
29215;BME280;16252;49.816;7.964;2022-09-12T05:41:16;100082.47;;;15.79;59.45
29215;BME280;16252;49.816;7.964;2022-09-12T05:43:43;100071.56;;;15.81;59.43
29215;BME280;16252;49.816;7.964;2022-09-12T05:46:15;99926.41;;;15.02;59.82
29215;BME280;16252;49.816;7.964;2022-09-12T05:48:43;99983.84;;;15.39;59.48
29215;BME280;16252;49.816;7.964;2022-09-12T05:51:11;100020.91;;;15.65;59.38
29215;BME280;16252;49.816;7.964;2022-09-12T05:53:40;99988.63;;;15.46;59.33
29215;BME280;16252;49.816;7.964;2022-09-12T05:56:10;100096.38;;;16.12;59.60
29215;BME280;16252;49.816;7.964;2022-09-12T05:58:38;99971.34;;;15.38;59.85
29215;BME280;16252;49.816;7.964;2022-09-12T06:01:10;99986.25;;;15.43;59.87
29215;BME280;16252;49.816;7.964;2022-09-12T06:03:43;100034.88;;;15.88;59.90
29215;BME280;16252;49.816;7.964;2022-09-12T06:06:09;100112.34;;;16.33;59.71
29215;BME280;16252;49.816;7.964;2022-09-12T06:08:38;100013.44;;;15.87;59.93
29215;BME280;16252;49.816;7.964;2022-09-12T06:11:05;100117.75;;;16.51;60.03
29215;BME280;16252;49.816;7.964;2022-09-12T06:13:32;100021.56;;;16.04;59.99
29215;BME280;16252;49.816;7.964;2022-09-12T06:16:08;100108.66;;;16.70;59.87
29215;BME280;16252;49.816;7.964;2022-09-12T06:18:35;100043.13;;;16.32;59.90
29215;BME280;16252;49.816;7.964;2022-09-12T06:21:06;100110.84;;;16.84;60.09
29215;BME280;16252;49.816;7.964;2022-09-12T06:23:32;100005.56;;;16.21;60.14
29215;BME280;16252;49.816;7.964;2022-09-12T06:25:58;100070.69;;;16.72;60.09
29215;BME280;16252;49.816;7.964;2022-09-12T06:28:24;99933.72;;;15.92;60.14
29215;BME280;16252;49.816;7.964;2022-09-12T06:30:49;100123.91;;;17.07;60.28
29215;BME280;16252;49.816;7.964;2022-09-12T06:33:15;100107.75;;;17.15;60.35
29215;BME280;16252;49.816;7.964;2022-09-12T06:35:41;100116.06;;;17.22;60.16
29215;BME280;16252;49.816;7.964;2022-09-12T06:38:06;100121.16;;;17.25;60.08
29215;BME280;16252;49.816;7.964;2022-09-12T06:40:32;100100.31;;;17.17;59.99
29215;BME280;16252;49.816;7.964;2022-09-12T06:42:57;100118.41;;;17.43;60.14
29215;BME280;16252;49.816;7.964;2022-09-12T06:45:23;100002.53;;;16.78;60.41
29215;BME280;16252;49.816;7.964;2022-09-12T06:47:48;100064.38;;;17.25;60.07
29215;BME280;16252;49.816;7.964;2022-09-12T06:50:13;100115.34;;;17.64;60.50
29215;BME280;16252;49.816;7.964;2022-09-12T06:52:38;100011.56;;;17.13;60.67
29215;BME280;16252;49.816;7.964;2022-09-12T06:55:04;100088.50;;;17.70;60.71
29215;BME280;16252;49.816;7.964;2022-09-12T06:57:30;100032.72;;;17.43;60.56
29215;BME280;16252;49.816;7.964;2022-09-12T06:59:56;100108.00;;;18.08;60.54
29215;BME280;16252;49.816;7.964;2022-09-12T07:02:22;99964.84;;;17.28;60.71
29215;BME280;16252;49.816;7.964;2022-09-12T07:04:49;100022.53;;;17.71;60.33
29215;BME280;16252;49.816;7.964;2022-09-12T07:07:16;100021.59;;;17.81;60.34
29215;BME280;16252;49.816;7.964;2022-09-12T07:09:41;100088.59;;;18.29;60.44
29215;BME280;16252;49.816;7.964;2022-09-12T07:12:07;100086.91;;;18.28;60.32
29215;BME280;16252;49.816;7.964;2022-09-12T07:14:32;100044.34;;;18.04;60.34
29215;BME280;16252;49.816;7.964;2022-09-12T07:16:57;100071.16;;;18.32;60.55
29215;BME280;16252;49.816;7.964;2022-09-12T07:19:23;100033.38;;;18.14;60.18
29215;BME280;16252;49.816;7.964;2022-09-12T07:21:48;100077.66;;;18.63;60.22
29215;BME280;16252;49.816;7.964;2022-09-12T07:24:14;99986.34;;;18.23;60.39
29215;BME280;16252;49.816;7.964;2022-09-12T07:26:39;100013.78;;;18.53;60.31
29215;BME280;16252;49.816;7.964;2022-09-12T07:29:06;100099.06;;;19.16;60.18
29215;BME280;16252;49.816;7.964;2022-09-12T07:31:33;100065.69;;;19.07;60.09
29215;BME280;16252;49.816;7.964;2022-09-12T07:33:58;100018.06;;;18.88;59.97
29215;BME280;16252;49.816;7.964;2022-09-12T07:36:24;99991.47;;;18.75;59.87
29215;BME280;16252;49.816;7.964;2022-09-12T07:38:54;100043.94;;;19.23;60.09
29215;BME280;16252;49.816;7.964;2022-09-12T07:41:23;100089.50;;;19.61;60.05
29215;BME280;16252;49.816;7.964;2022-09-12T07:43:53;100040.69;;;19.44;60.01
29215;BME280;16252;49.816;7.964;2022-09-12T07:46:19;99996.84;;;19.16;59.99
29215;BME280;16252;49.816;7.964;2022-09-12T07:48:48;100041.84;;;19.58;59.59
29215;BME280;16252;49.816;7.964;2022-09-12T07:51:14;100070.47;;;19.85;59.43
29215;BME280;16252;49.816;7.964;2022-09-12T07:53:40;100098.16;;;20.12;59.43
29215;BME280;16252;49.816;7.964;2022-09-12T07:56:08;100021.84;;;19.67;59.22
29215;BME280;16252;49.816;7.964;2022-09-12T07:58:35;100037.69;;;19.87;59.13
29215;BME280;16252;49.816;7.964;2022-09-12T08:01:11;100065.22;;;20.15;59.02
29215;BME280;16252;49.816;7.964;2022-09-12T08:03:41;100011.22;;;19.89;59.11
29215;BME280;16252;49.816;7.964;2022-09-12T08:06:12;100015.38;;;20.00;58.96
29215;BME280;16252;49.816;7.964;2022-09-12T08:08:38;100070.16;;;20.43;58.72
29215;BME280;16252;49.816;7.964;2022-09-12T08:11:07;100019.72;;;20.17;58.52
29215;BME280;16252;49.816;7.964;2022-09-12T08:13:34;100106.66;;;20.80;58.50
29215;BME280;16252;49.816;7.964;2022-09-12T08:16:01;100066.72;;;20.49;58.47
29215;BME280;16252;49.816;7.964;2022-09-12T08:18:28;100114.00;;;20.94;58.34
29215;BME280;16252;49.816;7.964;2022-09-12T08:20:57;100116.69;;;21.02;58.15
29215;BME280;16252;49.816;7.964;2022-09-12T08:23:23;100030.88;;;20.53;57.93
29215;BME280;16252;49.816;7.964;2022-09-12T08:25:49;100048.41;;;20.74;57.77
29215;BME280;16252;49.816;7.964;2022-09-12T08:28:14;100072.38;;;20.93;57.60
29215;BME280;16252;49.816;7.964;2022-09-12T08:30:40;100033.19;;;20.65;57.64
29215;BME280;16252;49.816;7.964;2022-09-12T08:33:06;100066.16;;;20.85;57.52
29215;BME280;16252;49.816;7.964;2022-09-12T08:35:31;100096.59;;;21.03;57.59
29215;BME280;16252;49.816;7.964;2022-09-12T08:37:57;100121.44;;;21.23;57.20
29215;BME280;16252;49.816;7.964;2022-09-12T08:40:22;100064.13;;;20.87;57.27
29215;BME280;16252;49.816;7.964;2022-09-12T08:43:00;100054.16;;;20.94;57.39
29215;BME280;16252;49.816;7.964;2022-09-12T08:45:40;100087.75;;;21.24;57.27
29215;BME280;16252;49.816;7.964;2022-09-12T08:48:08;100056.94;;;21.09;57.36
29215;BME280;16252;49.816;7.964;2022-09-12T08:50:35;100041.19;;;21.04;57.22
29215;BME280;16252;49.816;7.964;2022-09-12T08:53:13;100023.06;;;21.11;57.50
29215;BME280;16252;49.816;7.964;2022-09-12T08:55:44;100102.13;;;21.71;57.39
29215;BME280;16252;49.816;7.964;2022-09-12T08:58:11;100082.94;;;21.64;57.69
29215;BME280;16252;49.816;7.964;2022-09-12T09:01:04;100102.59;;;21.89;57.44
29215;BME280;16252;49.816;7.964;2022-09-12T09:06:34;100106.16;;;22.19;56.97
29215;BME280;16252;49.816;7.964;2022-09-12T09:09:35;100022.66;;;21.82;57.19
29215;BME280;16252;49.816;7.964;2022-09-12T09:12:13;100046.09;;;22.13;57.28
29215;BME280;16252;49.816;7.964;2022-09-12T09:17:15;100100.44;;;22.87;57.78
29215;BME280;16252;49.816;7.964;2022-09-12T09:19:48;100084.78;;;23.17;58.62
29215;BME280;16252;49.816;7.964;2022-09-12T09:22:26;100089.84;;;23.76;59.00
29215;BME280;16252;49.816;7.964;2022-09-12T09:25:00;100099.03;;;24.45;58.52
29215;BME280;16252;49.816;7.964;2022-09-12T09:27:34;100062.91;;;24.96;57.00
29215;BME280;16252;49.816;7.964;2022-09-12T09:30:03;100111.34;;;25.82;55.63
29215;BME280;16252;49.816;7.964;2022-09-12T09:32:37;99955.06;;;25.50;54.09
29215;BME280;16252;49.816;7.964;2022-09-12T09:38:29;99966.81;;;26.79;52.77
29215;BME280;16252;49.816;7.964;2022-09-12T09:43:40;100082.31;;;28.52;49.79
29215;BME280;16252;49.816;7.964;2022-09-12T09:46:05;100062.50;;;28.73;48.63
29215;BME280;16252;49.816;7.964;2022-09-12T09:48:33;100066.56;;;29.13;48.47
29215;BME280;16252;49.816;7.964;2022-09-12T09:51:01;100079.88;;;29.51;47.64
29215;BME280;16252;49.816;7.964;2022-09-12T09:53:47;100082.16;;;29.90;48.70
29215;BME280;16252;49.816;7.964;2022-09-12T09:56:36;100023.72;;;30.05;48.56
29215;BME280;16252;49.816;7.964;2022-09-12T09:59:19;100061.34;;;30.80;47.93
29215;BME280;16252;49.816;7.964;2022-09-12T10:01:55;99979.34;;;30.97;45.92
29215;BME280;16252;49.816;7.964;2022-09-12T10:04:24;99946.38;;;31.29;44.71
29215;BME280;16252;49.816;7.964;2022-09-12T10:06:51;100011.47;;;32.20;44.50
29215;BME280;16252;49.816;7.964;2022-09-12T10:09:23;99978.34;;;32.52;42.65
29215;BME280;16252;49.816;7.964;2022-09-12T10:11:51;100069.19;;;33.47;42.30
29215;BME280;16252;49.816;7.964;2022-09-12T10:14:39;100056.13;;;33.85;41.83
29215;BME280;16252;49.816;7.964;2022-09-12T10:19:47;100048.59;;;34.48;39.71
29215;BME280;16252;49.816;7.964;2022-09-12T10:22:17;99979.69;;;34.40;38.61
29215;BME280;16252;49.816;7.964;2022-09-12T10:24:49;100013.41;;;34.95;38.55
29215;BME280;16252;49.816;7.964;2022-09-12T10:27:31;100042.03;;;35.26;37.21
29215;BME280;16252;49.816;7.964;2022-09-12T10:30:03;100037.28;;;35.37;37.10
29215;BME280;16252;49.816;7.964;2022-09-12T10:32:34;100030.31;;;35.34;36.92
29215;BME280;16252;49.816;7.964;2022-09-12T10:35:15;100022.84;;;35.14;36.15
29215;BME280;16252;49.816;7.964;2022-09-12T10:37:50;99973.09;;;34.82;36.46
29215;BME280;16252;49.816;7.964;2022-09-12T10:40:25;100040.91;;;35.17;36.45
29215;BME280;16252;49.816;7.964;2022-09-12T10:42:54;99992.81;;;34.86;35.74
29215;BME280;16252;49.816;7.964;2022-09-12T10:45:22;100028.13;;;35.21;35.39
29215;BME280;16252;49.816;7.964;2022-09-12T10:47:49;99983.06;;;34.99;35.28
29215;BME280;16252;49.816;7.964;2022-09-12T10:50:38;100018.63;;;35.48;37.11
29215;BME280;16252;49.816;7.964;2022-09-12T10:53:23;99988.31;;;35.46;35.49
29215;BME280;16252;49.816;7.964;2022-09-12T10:56:09;100009.09;;;35.74;35.72
29215;BME280;16252;49.816;7.964;2022-09-12T11:12:02;99993.63;;;36.18;32.81
29215;BME280;16252;49.816;7.964;2022-09-12T11:14:43;99977.28;;;36.01;31.96
29215;BME280;16252;49.816;7.964;2022-09-12T11:19:47;99969.72;;;35.31;32.36
29215;BME280;16252;49.816;7.964;2022-09-12T11:33:38;99974.25;;;32.92;32.97
29215;BME280;16252;49.816;7.964;2022-09-12T11:36:16;99934.31;;;32.24;33.44
29215;BME280;16252;49.816;7.964;2022-09-12T11:39:11;99935.56;;;31.89;34.16
29215;BME280;16252;49.816;7.964;2022-09-12T11:42:01;99928.13;;;31.45;34.13
29215;BME280;16252;49.816;7.964;2022-09-12T11:44:25;99971.25;;;31.46;34.46
29215;BME280;16252;49.816;7.964;2022-09-12T11:46:52;99865.94;;;30.53;35.20
29215;BME280;16252;49.816;7.964;2022-09-12T11:49:24;99963.63;;;30.98;34.74
29215;BME280;16252;49.816;7.964;2022-09-12T11:51:59;99961.91;;;30.80;35.21
29215;BME280;16252;49.816;7.964;2022-09-12T11:54:47;99939.56;;;30.48;35.46
29215;BME280;16252;49.816;7.964;2022-09-12T11:59:48;99924.91;;;30.01;35.03
29215;BME280;16252;49.816;7.964;2022-09-12T12:02:26;99928.81;;;29.89;35.08
29215;BME280;16252;49.816;7.964;2022-09-12T12:05:14;99930.75;;;29.76;35.39
29215;BME280;16252;49.816;7.964;2022-09-12T12:07:51;99888.56;;;29.35;35.83
29215;BME280;16252;49.816;7.964;2022-09-12T12:10:31;99934.03;;;29.50;35.28
29215;BME280;16252;49.816;7.964;2022-09-12T12:12:59;99940.75;;;29.42;35.45
29215;BME280;16252;49.816;7.964;2022-09-12T12:15:26;99916.00;;;29.19;35.51
29215;BME280;16252;49.816;7.964;2022-09-12T12:18:00;99906.19;;;29.11;35.80
29215;BME280;16252;49.816;7.964;2022-09-12T12:20:27;99875.19;;;28.80;35.18
29215;BME280;16252;49.816;7.964;2022-09-12T12:22:54;99875.91;;;28.76;35.99
29215;BME280;16252;49.816;7.964;2022-09-12T12:25:37;99892.75;;;28.91;36.68
29215;BME280;16252;49.816;7.964;2022-09-12T12:28:04;99819.63;;;28.36;35.80
29215;BME280;16252;49.816;7.964;2022-09-12T12:38:31;99833.84;;;28.33;35.90
29215;BME280;16252;49.816;7.964;2022-09-12T12:44:00;99909.91;;;28.69;35.27
29215;BME280;16252;49.816;7.964;2022-09-12T12:46:29;99854.28;;;28.25;35.55
29215;BME280;16252;49.816;7.964;2022-09-12T12:51:32;99824.59;;;28.04;36.13
29215;BME280;16252;49.816;7.964;2022-09-12T12:54:01;99899.69;;;28.46;36.05
29215;BME280;16252;49.816;7.964;2022-09-12T12:56:40;99877.63;;;28.35;36.33
29215;BME280;16252;49.816;7.964;2022-09-12T12:59:19;99814.78;;;27.96;35.79
29215;BME280;16252;49.816;7.964;2022-09-12T13:01:48;99896.41;;;28.38;35.02
29215;BME280;16252;49.816;7.964;2022-09-12T13:04:17;99831.28;;;27.96;34.96
29215;BME280;16252;49.816;7.964;2022-09-12T13:06:55;99859.41;;;28.10;35.33
29215;BME280;16252;49.816;7.964;2022-09-12T13:11:46;99855.47;;;28.06;35.49
29215;BME280;16252;49.816;7.964;2022-09-12T13:17:27;99878.34;;;28.30;35.19
29215;BME280;16252;49.816;7.964;2022-09-12T13:20:22;99852.72;;;28.18;35.51
29215;BME280;16252;49.816;7.964;2022-09-12T13:22:48;99758.34;;;27.52;35.50
29215;BME280;16252;49.816;7.964;2022-09-12T13:25:30;99860.25;;;28.22;35.46
29215;BME280;16252;49.816;7.964;2022-09-12T13:30:27;99792.59;;;27.79;35.24
29215;BME280;16252;49.816;7.964;2022-09-12T13:32:56;99777.63;;;27.63;35.61
29215;BME280;16252;49.816;7.964;2022-09-12T13:37:58;99818.38;;;27.97;35.57
29215;BME280;16252;49.816;7.964;2022-09-12T13:43:38;99841.22;;;28.09;35.37
29215;BME280;16252;49.816;7.964;2022-09-12T13:46:06;99837.03;;;28.06;35.43
29215;BME280;16252;49.816;7.964;2022-09-12T13:48:33;99796.81;;;27.82;35.58
29215;BME280;16252;49.816;7.964;2022-09-12T13:51:00;99747.34;;;27.52;35.66
29215;BME280;16252;49.816;7.964;2022-09-12T13:53:30;99769.16;;;27.65;35.09
29215;BME280;16252;49.816;7.964;2022-09-12T13:56:00;99764.56;;;27.59;35.65
29215;BME280;16252;49.816;7.964;2022-09-12T13:58:28;99817.28;;;27.98;35.69
29215;BME280;16252;49.816;7.964;2022-09-12T14:01:06;99781.59;;;27.79;35.50
29215;BME280;16252;49.816;7.964;2022-09-12T14:03:38;99752.84;;;27.52;35.23
29215;BME280;16252;49.816;7.964;2022-09-12T14:06:22;99741.50;;;27.48;35.42
29215;BME280;16252;49.816;7.964;2022-09-12T14:08:51;99811.78;;;27.86;35.38
29215;BME280;16252;49.816;7.964;2022-09-12T14:11:25;99727.69;;;27.36;35.72
29215;BME280;16252;49.816;7.964;2022-09-12T14:13:51;99771.38;;;27.56;35.63
29215;BME280;16252;49.816;7.964;2022-09-12T14:16:18;99694.03;;;27.11;35.50
29215;BME280;16252;49.816;7.964;2022-09-12T14:18:46;99798.22;;;27.73;35.52
29215;BME280;16252;49.816;7.964;2022-09-12T14:21:25;99796.91;;;27.75;35.51
29215;BME280;16252;49.816;7.964;2022-09-12T14:23:55;99702.97;;;27.06;35.83
29215;BME280;16252;49.816;7.964;2022-09-12T14:26:22;99712.16;;;27.12;35.62
29215;BME280;16252;49.816;7.964;2022-09-12T14:28:49;99658.19;;;26.75;35.54
29215;BME280;16252;49.816;7.964;2022-09-12T14:31:26;99799.13;;;27.66;35.21
29215;BME280;16252;49.816;7.964;2022-09-12T14:33:55;99668.41;;;26.87;35.28
29215;BME280;16252;49.816;7.964;2022-09-12T14:36:24;99779.63;;;27.56;35.24
29215;BME280;16252;49.816;7.964;2022-09-12T14:38:54;99727.53;;;27.19;35.34
29215;BME280;16252;49.816;7.964;2022-09-12T14:41:47;99628.47;;;26.72;35.25
29215;BME280;16252;49.816;7.964;2022-09-12T14:44:19;99773.28;;;27.56;35.04
29215;BME280;16252;49.816;7.964;2022-09-12T14:46:47;99649.19;;;26.68;35.38
29215;BME280;16252;49.816;7.964;2022-09-12T14:49:30;99711.13;;;27.13;34.92
29215;BME280;16252;49.816;7.964;2022-09-12T14:51:58;99750.38;;;27.32;35.37
29215;BME280;16252;49.816;7.964;2022-09-12T14:57:30;99717.38;;;27.20;35.81
29215;BME280;16252;49.816;7.964;2022-09-12T15:02:41;99767.13;;;27.42;35.43
29215;BME280;16252;49.816;7.964;2022-09-12T15:07:42;99772.63;;;27.42;35.68